^^

Flughafenwetter in der weiteren Umgebung

 

EDVE - Braunschweig, Germany
Entfernung von Station: N 5 km
Aktualisierung: 18.11.2017 17:20
nicht aktuell
Bedeckt
Bedeckt
 Wind von W
Wind: W 19 km/h
Temperatur: 4°C
Windkühle: 0°C
Taupunkt: 4°C
Luftfeuchte: 100%
Luftdruck: 1012 hPa
Wolken: Bedeckt
Sicht: 10 km
Wolken Details: wolkig 274 m
stark bewölkt 2804 m
Bedeckt 3048 m
2017/11/18 16:20 EDVE 181620Z 26010KT 9999 SCT009 BKN092 OVC100 04/04 Q1012
ETHC - Celle (ger-Army), Germany
Entfernung von Station: NW 51 km
Aktualisierung: 18.11.2017 18:20
wolkig
wolkig
 Wind von WSW
Wind: WSW 15 km/h
Temperatur: 4°C
Windkühle: 1°C
Taupunkt: 2°C
Luftfeuchte: 87%
Luftdruck: 1012 hPa
Wolken: wolkig
Sicht: 10 km
Wolken Details: wolkig 305 m
wolkig 3048 m
2017/11/18 17:20 ETHC 181720Z 24008KT 9999 SCT010 SCT100 04/02 Q1012 BLU+
 
EDDV - Hannover, Germany
Entfernung von Station: WNW 62 km
Aktualisierung: 18.11.2017 18:20
wolkig
wolkig
 Wind von WSW
Wind: WSW 17 km/h
Temperatur: 4°C
Windkühle: 0°C
Taupunkt: 2°C
Luftfeuchte: 87%
Luftdruck: 1012 hPa
Wolken: wolkig
Sicht: 10 km
Wolken Details: teils wolkig 427 m
wolkig 7620 m
2017/11/18 17:20 EDDV 181720Z 25009KT 9999 FEW014 SCT250 04/02 Q1012 NOSIG
ETHS - Fassberg (ger-Af, Germany
Entfernung von Station: NNW 75 km
Aktualisierung: 18.11.2017 18:20
wolkig
wolkig
 Wind von W
Wind: W 15 km/h
Temperatur: 3°C
Windkühle: -1°C
Taupunkt: 2°C
Luftfeuchte: 93%
Luftdruck: 1011 hPa
Wolken: wolkig
Sicht: 10 km
Wolken Details: teils wolkig 305 m
wolkig 914 m
2017/11/18 17:20 ETHS 181720Z 27008KT 9999 FEW010 SCT030 03/02 Q1011 BLU+
 
EDBC - Cochstedt Arpt, Germany
Entfernung von Station: SO 76 km
Aktualisierung: 24.07.2017 17:20
nicht aktuell
leichter Regen, stark bewölkt
leichter Regen, stark bewölkt
 Wind von N
Wind: N 11 km/h
Temperatur: 16°C
Taupunkt: 16°C
Luftfeuchte: 100%
Luftdruck: 1007 hPa
Zusammenfassung: Nieselregen
Wolken: stark bewölkt
Sicht: 10 km
Wolken Details: wolkig 914 m
stark bewölkt 1981 m
2017/07/24 15:20 EDBC 241520Z 35006KT 9999 -RA SCT030 BKN065 16/16 Q1007
ETNW - Wunstorf (ger-Af, Germany
Entfernung von Station: WNW 79 km
Aktualisierung: 18.11.2017 18:20

 Wind von WSW
Wind: WSW 19 km/h
Temperatur: 4°C
Windkühle: 0°C
Taupunkt: 3°C
Luftfeuchte: 93%
Luftdruck: 1012 hPa
2017/11/18 17:20 ETNW 181720Z AUTO 25010KT //// // ////// 04/03 Q1012 ///
 
ETHB - Buckeburg(Ger-Ar, Germany
Entfernung von Station: W 101 km
Aktualisierung: 18.11.2017 18:20

 Wind von WSW
Wind: WSW 17 km/h
Temperatur: 4°C
Windkühle: 0°C
Taupunkt: 3°C
Luftfeuchte: 93%
Luftdruck: 1013 hPa
Sicht: 10 km
2017/11/18 17:20 ETHB 181720Z AUTO 25009KT 9999 // ////// 04/03 Q1013 ///
ETGQ - Rotenburg, Germany
Entfernung von Station: NW 125 km
Aktualisierung: 10.10.2016 06:20
nicht aktuell

 Wind von veränderlich
Wind: veränderlich 0 km/h
Temperatur: 4°C
Taupunkt: 3°C
Luftfeuchte: 93%
Luftdruck: 1025 hPa
2016/10/10 04:20 ETGQ 100420Z AUTO /////KT //// // ////// 04/03 Q1025 ///
 
EDVK - Kassel/Calden, Germany
Entfernung von Station: SW 128 km
Aktualisierung: 18.11.2017 18:20
leichter Regen, Bedeckt
leichter Regen, Bedeckt
 Wind von W
Wind: W 28 km/h
Temperatur: 4°C
Windkühle: -1°C
Taupunkt: 3°C
Luftfeuchte: 93%
Luftdruck: 1014 hPa
Zusammenfassung: Nieselregen
Wolken: Bedeckt
Sicht: 10 km
Wolken Details: Bedeckt 488 m
2017/11/18 17:20 EDVK 181720Z 27015KT 9999 -RA OVC016 04/03 Q1014
EDDW - Bremen, Germany
Entfernung von Station: NW 145 km
Aktualisierung: 18.11.2017 18:20
wolkig
wolkig
 Wind von W
Wind: W 19 km/h
Temperatur: 4°C
Windkühle: 0°C
Taupunkt: 3°C
Luftfeuchte: 93%
Luftdruck: 1012 hPa
Wolken: wolkig
Sicht: 10 km
Wolken Details: wolkig 1067 m
2017/11/18 17:20 EDDW 181720Z 27010KT 9999 SCT035 04/03 Q1012 NOSIG
 
EDDE - Erfurt, Germany
Entfernung von Station: SSO 148 km
Aktualisierung: 18.11.2017 18:20
stark bewölkt
stark bewölkt
 Wind von WSW
Wind: WSW 31 km/h
Temperatur: 4°C
Windkühle: -2°C
Taupunkt: 0°C
Luftfeuchte: 75%
Luftdruck: 1013 hPa
Wolken: stark bewölkt
Sicht: 10 km
Wolken Details: teils wolkig 305 m
stark bewölkt 792 m
2017/11/18 17:20 EDDE 181720Z 24017KT 9999 FEW010 BKN026 04/M00 Q1013 TEMPO 24015G25KT
EDLP - Paderborn, Germany
Entfernung von Station: WSW 135 km
Aktualisierung: 18.11.2017 18:20
leichter Regen, stark bewölkt
leichter Regen, stark bewölkt
 Wind von WSW
Wind: WSW 17 km/h
Temperatur: 3°C
Windkühle: -1°C
Taupunkt: 2°C
Luftfeuchte: 93%
Luftdruck: 1015 hPa
Zusammenfassung: Nieselregen
Wolken: stark bewölkt
Sicht: 10 km
Wolken Details: wolkig 183 m
stark bewölkt 274 m
2017/11/18 17:20 EDLP 181720Z 25009KT 230V290 9999 -RA SCT006 BKN009 03/02 Q1015 RERA
 
EDHI - Hamburg/Finkenwe, Germany
Entfernung von Station: NNW 148 km
Aktualisierung: 18.11.2017 18:20

 Wind von WSW
Wind: WSW 19 km/h
Sicht: 10 km
2017/11/18 17:20 EDHI 181720Z AUTO 25010KT 9999 2000 FEW030/// BKN034/// 05/03 Q1009
EDDP - Leipzig/Schkeudi, Germany
Entfernung von Station: SO 149 km
Aktualisierung: 18.11.2017 18:20
leichter Regen, stark bewölkt
leichter Regen, stark bewölkt
 Wind von WSW
Wind: WSW 39 km/h
Temperatur: 5°C
Windkühle: -1°C
Taupunkt: 1°C
Luftfeuchte: 76%
Luftdruck: 1012 hPa
Zusammenfassung: Nieselregen
Wolken: stark bewölkt
Sicht: 10 km
Wolken Details: stark bewölkt 823 m
stark bewölkt 1219 m
2017/11/18 17:20 EDDP 181720Z 25021KT 9999 -RA BKN027 BKN040 05/01 Q1012 TEMPO 24020G30KT
 
EDDP - Leipzig/Halle, Germany
Entfernung von Station: SO 149 km
Aktualisierung: 18.11.2017 18:20
leichter Regen, stark bewölkt
leichter Regen, stark bewölkt
 Wind von WSW
Wind: WSW 39 km/h
Temperatur: 5°C
Windkühle: -1°C
Taupunkt: 1°C
Luftfeuchte: 76%
Luftdruck: 1012 hPa
Zusammenfassung: Nieselregen
Wolken: stark bewölkt
Sicht: 10 km
Wolken Details: stark bewölkt 823 m
stark bewölkt 1219 m
2017/11/18 17:20 EDDP 181720Z 25021KT 9999 -RA BKN027 BKN040 05/01 Q1012 TEMPO 24020G30KT
EDOP - Schwerin-Parchim, Germany
Entfernung von Station: NNO 153 km
Aktualisierung: 18.11.2017 16:50
nicht aktuell
stark bewölkt
stark bewölkt
 Wind von WSW
Wind: WSW 22 km/h
Temperatur: 3°C
Windkühle: -2°C
Taupunkt: 2°C
Luftfeuchte: 93%
Luftdruck: 1008 hPa
Wolken: stark bewölkt
Sicht: 10 km
Wolken Details: stark bewölkt 274 m
2017/11/18 15:50 EDOP 181550Z 24012KT 9999 BKN009 03/02 Q1008
 
ETND - Diepholz (ger-Af, Germany
Entfernung von Station: WNW 153 km
Aktualisierung: 17.11.2017 11:20
nicht aktuell
teils wolkig
teils wolkig
 Wind von W
Wind: W 6 km/h
Temperatur: 9°C
Taupunkt: 3°C
Luftfeuchte: 66%
Luftdruck: 1026 hPa
Wolken: teils wolkig
Sicht: 10 km
Wolken Details: teils wolkig 1524 m
2017/11/17 10:20 ETND 171020Z 27003KT 9999 FEW050 09/03 Q1026 BLU+
EDDH - Hamburg, Germany
Entfernung von Station: NNW 154 km
Aktualisierung: 18.11.2017 18:20
wolkig
wolkig
 Wind von WSW
Wind: WSW 15 km/h
Temperatur: 4°C
Windkühle: 1°C
Taupunkt: 3°C
Luftfeuchte: 93%
Luftdruck: 1009 hPa
Wolken: wolkig
Sicht: 10 km
Wolken Details: wolkig 914 m
2017/11/18 17:20 EDDH 181720Z 24008KT 9999 SCT030 04/03 Q1009 NOSIG
 
ETHF - Fritzlar (ger-Ar, Germany
Entfernung von Station: SW 156 km
Aktualisierung: 18.11.2017 18:20
stark bewölkt
stark bewölkt
 Wind von SW
Wind: SW 17 km/h
Temperatur: 4°C
Windkühle: 0°C
Taupunkt: 1°C
Luftfeuchte: 81%
Luftdruck: 1015 hPa
Wolken: stark bewölkt
Sicht: 10 km
Wolken Details: teils wolkig 671 m
stark bewölkt 884 m
2017/11/18 17:20 ETHF 181720Z 23009KT 9999 FEW022 BKN029 04/01 Q1015 BLU
EDHL - Luebeck, Germany
Entfernung von Station: N 178 km
Aktualisierung: 18.11.2017 18:20
Klar
Klar
 Wind von W
Wind: W 17 km/h
Temperatur: 4°C
Windkühle: 0°C
Taupunkt: 3°C
Luftfeuchte: 93%
Luftdruck: 1008 hPa
Zusammenfassung: Klar
Sicht: mehr als 10 km
2017/11/18 17:20 EDHL 181720Z 26009KT 230V320 CAVOK 04/03 Q1008
 
ETSH - Holzdorf, Germany
Entfernung von Station: OSO 188 km
Aktualisierung: 18.11.2017 18:20
leichter Regen, stark bewölkt
leichter Regen, stark bewölkt
 Wind von WSW
Wind: WSW 33 km/h, Windböen: 54 km/h
Temperatur: 4°C
Windkühle: -2°C
Taupunkt: 1°C
Luftfeuchte: 81%
Luftdruck: 1011 hPa
Zusammenfassung: Nieselregen
Wolken: stark bewölkt
Sicht: 10 km
Wolken Details: stark bewölkt 671 m
2017/11/18 17:20 ETSH 181720Z 25018G29KT 9999 -RA BKN022 04/01 Q1011 WHT
EDDT - Berlin-Tegel, Germany
Entfernung von Station: ONO 190 km
Aktualisierung: 18.11.2017 18:20
stark bewölkt
stark bewölkt
 Wind von WSW
Wind: WSW 22 km/h
Temperatur: 4°C
Windkühle: -1°C
Taupunkt: 3°C
Luftfeuchte: 93%
Luftdruck: 1009 hPa
Wolken: stark bewölkt
Sicht: 10 km
Wolken Details: teils wolkig 274 m
wolkig 853 m
stark bewölkt 3962 m
2017/11/18 17:20 EDDT 181720Z 25012KT 9999 FEW009 SCT028 BKN130 04/03 Q1009 NOSIG
 
ETNL - Rostock-Laage, Germany
Entfernung von Station: NO 217 km
Aktualisierung: 18.11.2017 18:20

 Wind von WSW
Wind: WSW 17 km/h
Temperatur: 3°C
Windkühle: -1°C
Taupunkt: 2°C
Luftfeuchte: 93%
Luftdruck: 1006 hPa
Sicht: 10 km
2017/11/18 17:20 ETNL 181720Z 25009KT 9999 03/02 Q1006 BLU+
EDLW - Dortmund, Germany
Entfernung von Station: WSW 217 km
Aktualisierung: 18.11.2017 18:20
leichter Regen, stark bewölkt
leichter Regen, stark bewölkt
 Wind von WSW
Wind: WSW 13 km/h
Temperatur: 3°C
Windkühle: -1°C
Taupunkt: 2°C
Luftfeuchte: 93%
Luftdruck: 1016 hPa
Zusammenfassung: Nieselregen
Wolken: stark bewölkt
Sicht: 7 km
Wolken Details: stark bewölkt 792 m
2017/11/18 17:20 EDLW 181720Z 25007KT 7000 -RA BKN026 03/02 Q1016
 
EDDK - Koeln/Bonn, Germany
Entfernung von Station: WSW 282 km
Aktualisierung: 18.11.2017 18:20
stark bewölkt
stark bewölkt
 Wind von W
Wind: W 30 km/h
Temperatur: 6°C
Windkühle: 2°C
Taupunkt: 3°C
Luftfeuchte: 81%
Luftdruck: 1017 hPa
Wolken: stark bewölkt
Sicht: 10 km
Wolken Details: teils wolkig 549 m
wolkig 1036 m
stark bewölkt 1981 m
2017/11/18 17:20 EDDK 181720Z 26016KT 9999 FEW018 SCT034 BKN065 06/03 Q1017 NOSIG
EDDL - Düsseldorf, Germany
Entfernung von Station: WSW 282 km
Aktualisierung: 18.11.2017 18:20
leichter Regen, stark bewölkt
leichter Regen, stark bewölkt
 Wind von WSW
Wind: WSW 22 km/h
Temperatur: 7°C
Windkühle: 4°C
Taupunkt: 3°C
Luftfeuchte: 76%
Luftdruck: 1016 hPa
Zusammenfassung: Nieselregen
Wolken: stark bewölkt
Sicht: 10 km
Wolken Details: teils wolkig 488 m
wolkig 610 m
stark bewölkt 1097 m
2017/11/18 17:20 EDDL 181720Z 25012KT 9999 -RA FEW016 SCT020 BKN036 07/03 Q1016 NOSIG
 
EDDF - Frankfurt Main, Germany
Entfernung von Station: SSW 285 km
Aktualisierung: 18.11.2017 18:20
Klar
Klar
 Wind von SW
Wind: SW 26 km/h
Temperatur: 6°C
Windkühle: 2°C
Taupunkt: -1°C
Luftfeuchte: 61%
Luftdruck: 1019 hPa
Zusammenfassung: Klar
Sicht: mehr als 10 km
2017/11/18 17:20 EDDF 181720Z 22014KT CAVOK 06/M01 Q1019 NOSIG
EDDS - Stuttgart, Germany
Entfernung von Station: SSW 413 km
Aktualisierung: 18.11.2017 18:20
stark bewölkt
stark bewölkt
 Wind von WSW
Wind: WSW 9 km/h
Temperatur: 4°C
Windkühle: 2°C
Taupunkt: 0°C
Luftfeuchte: 75%
Luftdruck: 1021 hPa
Wolken: stark bewölkt
Sicht: 10 km
Wolken Details: stark bewölkt 1097 m
2017/11/18 17:20 EDDS 181720Z 25005KT 220V290 9999 BKN036 04/M00 Q1021 NOSIG
 
EDDR - Saarbrücken, Germany
Entfernung von Station: SW 418 km
Aktualisierung: 18.11.2017 18:20
stark bewölkt
stark bewölkt
 Wind von WSW
Wind: WSW 22 km/h
Temperatur: 4°C
Windkühle: -1°C
Taupunkt: 0°C
Luftfeuchte: 75%
Luftdruck: 1021 hPa
Wolken: stark bewölkt
Sicht: 10 km
Wolken Details: teils wolkig 610 m
stark bewölkt 1158 m
2017/11/18 17:20 EDDR 181720Z 25012KT 9999 FEW020 BKN038 04/00 Q1021 NOSIG
EDDM - München, Germany
Entfernung von Station: SSO 445 km
Aktualisierung: 18.11.2017 18:20
Bedeckt
Bedeckt
 Wind von W
Wind: W 17 km/h
Temperatur: 4°C
Windkühle: 0°C
Taupunkt: 0°C
Luftfeuchte: 75%
Luftdruck: 1019 hPa
Wolken: Bedeckt
Sicht: 10 km
Wolken Details: teils wolkig 853 m
Bedeckt 1128 m
2017/11/18 17:20 EDDM 181720Z 28009KT 9999 FEW028 OVC037 04/M00 Q1019 NOSIG
 
LOWI - Innsbruck, Austria
Entfernung von Station: WSW 566 km
Aktualisierung: 18.11.2017 18:20
stark bewölkt
stark bewölkt
 Wind von S
Wind: S 4 km/h
Temperatur: 3°C
Taupunkt: 1°C
Luftfeuchte: 87%
Luftdruck: 1019 hPa
Wolken: stark bewölkt
Sicht: 10 km
Wolken Details: teils wolkig 549 m
stark bewölkt 671 m
2017/11/18 17:20 LOWI 181720Z 17002KT 9999 FEW018 BKN022 03/01 Q1019 NOSIG
Besucherstatistik
Besucher gesamt: 904.007
Besucher heute: 1.163
Besucher gestern: 1.330
Besucher Ø : 1.037,22
gerade online: 13
max. online: 119
Seitenaufrufe heute: 16.197
Seitenaufrufe diese Seite: 3.840
Seitenaufrufe gesamt: 3.063.427
counter Statistiken